createdAt,value
2018-05-11T00:00:14.366Z,27.60
2018-05-11T00:02:44.173Z,27.60
2018-05-11T00:05:14.726Z,27.70
2018-05-11T00:07:44.523Z,27.70
2018-05-11T00:10:14.260Z,27.70
2018-05-11T00:12:43.995Z,27.80
2018-05-11T00:15:13.755Z,27.80
2018-05-11T00:17:44.287Z,28.00
2018-05-11T00:20:14.042Z,28.00
2018-05-11T00:22:43.791Z,28.10
2018-05-11T00:25:14.335Z,28.30
2018-05-11T00:27:44.084Z,28.30
2018-05-11T00:30:13.852Z,28.40
2018-05-11T00:32:43.599Z,28.50
2018-05-11T00:35:13.397Z,28.50
2018-05-11T00:37:43.317Z,28.60
2018-05-11T00:40:13.068Z,28.80
2018-05-11T00:42:42.814Z,28.90
2018-05-11T00:45:12.602Z,29.00
2018-05-11T00:47:43.098Z,29.20
2018-05-11T00:50:13.670Z,29.20
2018-05-11T00:52:44.217Z,29.40
2018-05-11T00:55:24.962Z,29.40
2018-05-11T00:57:56.243Z,29.60
2018-05-11T01:00:26.013Z,29.60
2018-05-11T01:02:56.764Z,29.80
2018-05-11T01:05:27.282Z,29.90
2018-05-11T01:07:57.788Z,29.90
2018-05-11T01:10:27.571Z,29.90
2018-05-11T01:12:57.333Z,29.90
2018-05-11T01:15:28.169Z,30.00
2018-05-11T01:17:58.673Z,30.50
2018-05-11T01:20:28.441Z,30.40
2018-05-11T01:22:58.237Z,30.40
2018-05-11T01:25:28.037Z,30.50
2018-05-11T01:27:58.554Z,30.60
2018-05-11T01:30:29.216Z,30.50
2018-05-11T01:32:58.973Z,30.50
2018-05-11T01:35:28.747Z,30.60
2018-05-11T01:37:58.524Z,30.70
2018-05-11T01:40:29.038Z,31.20
2018-05-11T01:42:58.799Z,31.20
2018-05-11T01:45:28.583Z,31.30
2018-05-11T01:47:59.083Z,31.70
2018-05-11T01:50:29.685Z,31.70
2018-05-11T01:52:59.428Z,31.80
2018-05-11T01:55:29.182Z,31.90
2018-05-11T01:57:58.943Z,32.10
2018-05-11T02:00:28.723Z,32.30
2018-05-11T02:02:58.439Z,32.40
2018-05-11T02:05:28.256Z,32.40
2018-05-11T02:07:58.018Z,32.40
2018-05-11T02:10:28.587Z,32.40
2018-05-11T02:12:58.347Z,32.40
2018-05-11T02:15:28.878Z,32.60
2018-05-11T02:17:59.415Z,32.60
2018-05-11T02:20:29.916Z,32.70
2018-05-11T02:22:59.652Z,32.60
2018-05-11T02:25:30.176Z,32.80
2018-05-11T02:28:00.693Z,32.80
2018-05-11T02:30:36.026Z,32.80
2018-05-11T02:33:06.554Z,33.10
2018-05-11T02:35:36.316Z,33.10
2018-05-11T02:38:06.097Z,33.30
2018-05-11T02:40:36.600Z,33.30
2018-05-11T02:43:06.369Z,33.30
2018-05-11T02:45:36.151Z,33.40
2018-05-11T02:48:06.804Z,33.20
2018-05-11T02:50:36.687Z,33.20
2018-05-11T02:53:07.259Z,33.30
2018-05-11T02:55:37.055Z,33.30
2018-05-11T02:58:06.827Z,33.30
2018-05-11T03:00:36.579Z,33.40
2018-05-11T03:03:06.346Z,33.30
2018-05-11T03:05:36.103Z,33.10
2018-05-11T03:08:05.908Z,33.10
2018-05-11T03:10:35.715Z,33.20
2018-05-11T03:13:06.356Z,33.30
2018-05-11T03:15:36.121Z,33.30
2018-05-11T03:18:05.856Z,33.40
2018-05-11T03:20:36.416Z,33.80
2018-05-11T03:23:06.343Z,33.70
2018-05-11T03:25:36.096Z,34.10
2018-05-11T03:28:05.937Z,34.10
2018-05-11T03:30:35.871Z,34.40
2018-05-11T03:33:05.650Z,34.40
2018-05-11T03:35:36.191Z,34.50
2018-05-11T03:38:05.962Z,34.50
2018-05-11T03:40:38.707Z,34.60
2018-05-11T03:45:44.128Z,34.60
2018-05-11T03:48:15.157Z,34.50
2018-05-11T03:50:48.409Z,34.40
2018-05-11T04:01:24.479Z,35.20
2018-05-11T04:04:05.702Z,35.10
2018-05-11T04:06:48.004Z,35.30
2018-05-11T04:11:51.302Z,35.50
2018-05-11T04:14:21.733Z,35.80
2018-05-11T04:16:51.551Z,36.10
2018-05-11T04:19:21.354Z,36.30
2018-05-11T04:21:51.171Z,36.40
2018-05-11T04:24:20.950Z,36.60
2018-05-11T04:26:51.579Z,36.70
2018-05-11T04:29:21.367Z,36.70
2018-05-11T04:31:51.131Z,36.80
2018-05-11T04:34:20.905Z,36.60
2018-05-11T04:36:51.451Z,36.60
2018-05-11T04:39:21.265Z,36.60
2018-05-11T04:41:51.060Z,36.50
2018-05-11T04:44:21.591Z,36.00
2018-05-11T04:46:52.191Z,35.60
2018-05-11T04:49:21.962Z,35.50
2018-05-11T04:51:51.753Z,35.30
2018-05-11T04:54:21.571Z,35.10
2018-05-11T04:56:51.368Z,34.90
2018-05-11T04:59:21.923Z,34.60
2018-05-11T05:01:51.742Z,34.60
2018-05-11T05:04:21.722Z,34.30
2018-05-11T05:06:52.848Z,33.40
2018-05-11T05:09:22.601Z,33.30
2018-05-11T05:11:52.382Z,33.10
2018-05-11T05:14:22.902Z,32.90
2018-05-11T05:16:52.726Z,32.90
2018-05-11T05:19:23.386Z,33.10
2018-05-11T05:21:53.303Z,33.10
2018-05-11T05:24:23.095Z,33.20
2018-05-11T05:26:53.699Z,33.90
2018-05-11T05:29:23.503Z,33.80
2018-05-11T05:31:54.043Z,34.20
2018-05-11T05:34:24.566Z,34.40
2018-05-11T05:36:54.340Z,34.40
2018-05-11T05:39:24.150Z,34.40
2018-05-11T05:41:53.945Z,34.40
2018-05-11T05:44:23.731Z,34.60
2018-05-11T05:46:53.573Z,34.70
2018-05-11T05:49:23.359Z,34.60
2018-05-11T05:51:53.919Z,34.30
2018-05-11T05:54:23.656Z,34.30
2018-05-11T05:56:53.414Z,34.20
2018-05-11T05:59:23.991Z,33.80
2018-05-11T06:01:53.787Z,33.80
2018-05-11T06:04:23.563Z,33.60
2018-05-11T06:06:54.124Z,33.50
2018-05-11T06:09:23.924Z,33.40
2018-05-11T06:11:53.695Z,33.50
2018-05-11T06:14:23.467Z,33.40
2018-05-11T06:16:53.187Z,33.50
2018-05-11T06:19:22.949Z,33.40
2018-05-11T06:21:54.271Z,33.20
2018-05-11T06:24:24.008Z,33.20
2018-05-11T06:26:54.526Z,33.40
2018-05-11T06:29:25.065Z,33.40
2018-05-11T06:31:54.822Z,33.60
2018-05-11T06:34:24.615Z,33.90
2018-05-11T06:36:54.394Z,34.00
2018-05-11T06:39:24.224Z,34.10
2018-05-11T06:41:53.994Z,34.10
2018-05-11T06:44:23.896Z,34.10
2018-05-11T06:46:53.952Z,34.20
2018-05-11T06:49:23.700Z,34.30
2018-05-11T06:51:53.447Z,34.40
2018-05-11T06:54:23.223Z,34.40
2018-05-11T06:56:53.965Z,34.40
2018-05-11T06:59:23.750Z,34.40
2018-05-11T07:01:53.578Z,34.50
2018-05-11T07:04:23.332Z,34.80
2018-05-11T07:06:53.042Z,35.10
2018-05-11T07:09:22.826Z,35.30
2018-05-11T07:11:52.580Z,35.50
2018-05-11T07:14:24.186Z,35.70
2018-05-11T07:16:53.982Z,35.70
2018-05-11T07:19:23.740Z,35.80
2018-05-11T07:21:53.469Z,35.80
2018-05-11T07:24:24.035Z,35.70
2018-05-11T07:26:53.822Z,35.70
2018-05-11T07:29:24.458Z,35.90
2018-05-11T07:31:54.226Z,36.10
2018-05-11T07:34:24.096Z,36.10
2018-05-11T07:36:53.911Z,35.90
2018-05-11T07:39:23.674Z,36.00
2018-05-11T07:41:53.486Z,35.80
2018-05-11T07:44:23.236Z,35.70
2018-05-11T07:46:52.997Z,35.60
2018-05-11T07:49:22.762Z,35.80
2018-05-11T07:51:52.543Z,36.00
2018-05-11T07:54:23.039Z,36.00
2018-05-11T07:56:52.888Z,36.00
2018-05-11T07:59:23.443Z,35.70
2018-05-11T08:01:53.230Z,35.70
2018-05-11T08:04:23.767Z,35.50
2018-05-11T08:06:53.535Z,35.50
2018-05-11T08:09:23.313Z,35.30
2018-05-11T08:11:53.100Z,35.10
2018-05-11T08:14:22.879Z,34.80
2018-05-11T08:16:52.767Z,34.70
2018-05-11T08:19:24.937Z,34.50
2018-05-11T08:21:54.707Z,34.40
2018-05-11T08:24:24.452Z,34.40
2018-05-11T08:26:54.306Z,34.30
2018-05-11T08:29:24.960Z,34.40
2018-05-11T08:31:54.684Z,34.40
2018-05-11T08:34:24.434Z,34.70
2018-05-11T08:36:54.199Z,34.80
2018-05-11T08:39:24.810Z,34.50
2018-05-11T08:41:55.327Z,34.50
2018-05-11T08:44:25.939Z,34.50
2018-05-11T08:46:55.705Z,34.50
2018-05-11T08:49:25.470Z,34.50
2018-05-11T08:51:55.301Z,34.50
2018-05-11T08:54:25.858Z,35.00
2018-05-11T08:56:55.650Z,35.00
2018-05-11T08:59:26.324Z,34.90
2018-05-11T09:01:56.167Z,34.90
2018-05-11T09:04:25.944Z,34.80
2018-05-11T09:06:55.693Z,34.70
2018-05-11T09:09:25.438Z,34.70
2018-05-11T09:11:55.201Z,34.70
2018-05-11T09:14:24.929Z,34.60
2018-05-11T09:16:54.701Z,34.60
2018-05-11T09:19:24.538Z,34.40
2018-05-11T09:21:54.268Z,34.40
2018-05-11T09:24:24.020Z,34.30
2018-05-11T09:26:53.805Z,34.30
2018-05-11T09:29:24.325Z,34.30
2018-05-11T09:31:54.955Z,34.40
2018-05-11T09:34:25.468Z,34.50
2018-05-11T09:36:55.205Z,34.50
2018-05-11T09:39:26.949Z,34.40
2018-05-11T09:41:57.509Z,34.40
2018-05-11T09:44:27.258Z,34.40
2018-05-11T09:46:57.016Z,34.30
2018-05-11T09:49:27.562Z,34.20
2018-05-11T09:51:57.450Z,34.10
2018-05-11T09:54:27.198Z,34.00
2018-05-11T09:56:56.959Z,33.90
2018-05-11T09:59:26.711Z,33.70
2018-05-11T10:01:56.521Z,33.60
2018-05-11T10:04:26.296Z,33.50
2018-05-11T10:06:56.062Z,33.40
2018-05-11T10:09:25.835Z,33.40
2018-05-11T10:11:56.367Z,33.20
2018-05-11T10:14:26.893Z,33.20
2018-05-11T10:16:57.400Z,33.20
2018-05-11T10:19:27.167Z,33.20
2018-05-11T10:21:56.940Z,33.20
2018-05-11T10:24:27.931Z,33.10
2018-05-11T10:26:57.668Z,33.10
2018-05-11T10:29:27.425Z,33.10
2018-05-11T10:31:57.149Z,33.10
2018-05-11T10:34:27.104Z,33.10
2018-05-11T10:36:56.867Z,33.10
2018-05-11T10:39:26.642Z,33.00
2018-05-11T10:41:57.197Z,32.80
2018-05-11T10:44:27.023Z,32.90
2018-05-11T10:46:56.833Z,32.80
2018-05-11T10:49:26.662Z,32.60
2018-05-11T10:51:56.460Z,32.40
2018-05-11T10:54:26.290Z,32.40
2018-05-11T10:56:58.107Z,32.30
2018-05-11T10:59:28.948Z,32.30
2018-05-11T11:01:58.729Z,32.30
2018-05-11T11:04:28.582Z,32.20
2018-05-11T11:06:58.358Z,32.10
2018-05-11T11:09:28.186Z,32.10
2018-05-11T11:11:58.536Z,32.00
2018-05-11T11:14:28.365Z,31.90
2018-05-11T11:16:58.136Z,31.90
2018-05-11T11:19:29.564Z,31.80
2018-05-11T11:22:00.135Z,31.80
2018-05-11T11:24:29.900Z,31.80
2018-05-11T11:26:59.659Z,31.80
2018-05-11T11:29:29.423Z,31.70
2018-05-11T11:31:59.212Z,31.70
2018-05-11T11:34:29.026Z,31.60
2018-05-11T11:36:58.876Z,31.50
2018-05-11T11:39:29.426Z,31.30
2018-05-11T11:41:59.192Z,31.30
2018-05-11T11:44:28.996Z,31.20
2018-05-11T11:46:58.765Z,31.10
2018-05-11T11:49:28.622Z,31.00
2018-05-11T11:51:59.183Z,30.90
2018-05-11T11:54:30.701Z,30.70
2018-05-11T11:57:00.463Z,30.70
2018-05-11T11:59:30.219Z,30.70
2018-05-11T12:02:00.078Z,30.60
2018-05-11T12:04:30.191Z,30.50
2018-05-11T12:07:00.727Z,30.40
2018-05-11T12:09:31.292Z,30.30
2018-05-11T12:12:01.101Z,30.30
2018-05-11T12:14:30.839Z,30.30
2018-05-11T12:17:00.600Z,30.20
2018-05-11T12:19:30.367Z,30.20
2018-05-11T12:22:00.113Z,30.20
2018-05-11T12:24:29.883Z,30.30
2018-05-11T12:26:59.656Z,30.30
2018-05-11T12:29:30.251Z,30.40
2018-05-11T12:32:00.785Z,30.50
2018-05-11T12:34:31.332Z,30.50
2018-05-11T12:37:01.190Z,30.50
2018-05-11T12:39:30.973Z,30.50
2018-05-11T12:42:00.729Z,30.50
2018-05-11T12:44:30.504Z,30.60
2018-05-11T12:47:00.342Z,30.60
2018-05-11T12:49:30.109Z,30.60
2018-05-11T12:52:00.901Z,30.60
2018-05-11T12:54:30.647Z,30.70
2018-05-11T12:57:00.372Z,30.70
2018-05-11T12:59:30.133Z,30.60
2018-05-11T13:01:59.899Z,30.60
2018-05-11T13:04:29.639Z,30.60
2018-05-11T13:06:59.396Z,30.60
2018-05-11T13:09:29.177Z,30.50
2018-05-11T13:11:59.918Z,30.30
2018-05-11T13:14:30.484Z,30.20
2018-05-11T13:17:00.265Z,30.20
2018-05-11T13:19:30.831Z,30.10
2018-05-11T13:22:00.805Z,30.00
2018-05-11T13:24:30.563Z,30.00
2018-05-11T13:27:00.323Z,29.90
2018-05-11T13:29:30.127Z,29.90
2018-05-11T13:31:59.890Z,29.90
2018-05-11T13:34:29.642Z,29.80
2018-05-11T13:36:59.413Z,29.80
2018-05-11T13:39:29.196Z,29.70
2018-05-11T13:41:59.792Z,29.60
2018-05-11T13:47:05.019Z,29.50
2018-05-11T13:49:34.993Z,29.50
2018-05-11T13:52:05.583Z,29.40
2018-05-11T13:54:36.486Z,29.30
2018-05-11T15:37:43.982Z,28.60
2018-05-11T15:40:14.330Z,28.50
2018-05-11T15:42:44.130Z,28.40
2018-05-11T15:45:13.899Z,28.40
2018-05-11T15:47:44.503Z,28.30
2018-05-11T15:50:14.270Z,28.30
2018-05-11T15:52:44.027Z,28.30
2018-05-11T15:55:14.576Z,28.30
2018-05-11T15:57:44.361Z,28.30
2018-05-11T16:00:14.927Z,28.30
2018-05-11T16:02:45.267Z,28.30
2018-05-11T16:05:15.032Z,28.30
2018-05-11T16:07:45.530Z,28.30
2018-05-11T16:10:15.315Z,28.30
2018-05-11T16:12:45.068Z,28.30
2018-05-11T16:15:15.735Z,28.20
2018-05-11T16:17:45.596Z,28.20
2018-05-11T16:20:15.558Z,28.20
2018-05-11T16:22:45.316Z,28.30
2018-05-11T16:25:15.084Z,28.30
2018-05-11T16:27:44.861Z,28.30
2018-05-11T16:30:15.932Z,28.30
2018-05-11T16:32:45.683Z,28.30
2018-05-11T16:35:16.400Z,28.40
2018-05-11T16:37:46.177Z,28.40
2018-05-11T16:40:15.976Z,28.40
2018-05-11T16:42:46.516Z,28.40
2018-05-11T16:45:17.040Z,28.40
2018-05-11T16:47:47.560Z,28.40
2018-05-11T16:50:18.084Z,28.40
2018-05-11T16:52:49.626Z,28.40
2018-05-11T16:55:19.444Z,28.40
2018-05-11T16:57:49.211Z,28.40
2018-05-11T17:00:18.954Z,28.30
2018-05-11T17:02:48.695Z,28.10
2018-05-11T17:05:19.198Z,28.10
2018-05-11T17:07:48.958Z,28.10
2018-05-11T17:10:18.687Z,28.10
2018-05-11T17:12:48.434Z,28.10
2018-05-11T17:15:18.173Z,28.20
2018-05-11T17:17:47.916Z,28.20
2018-05-11T17:20:18.458Z,28.20
2018-05-11T17:22:48.882Z,28.20
2018-05-11T17:25:18.884Z,28.30
2018-05-11T17:27:48.753Z,28.40
2018-05-11T17:30:19.297Z,28.50
2018-05-11T17:32:49.250Z,28.40
2018-05-11T17:35:19.072Z,28.50
2018-05-11T17:37:48.819Z,28.50
2018-05-11T17:40:19.446Z,28.50
2018-05-11T17:42:49.968Z,28.40
2018-05-11T17:45:19.742Z,28.40
2018-05-11T17:47:49.464Z,28.50
2018-05-11T17:50:19.225Z,28.50
2018-05-11T17:52:49.758Z,28.10
2018-05-11T17:55:19.481Z,28.10
2018-05-11T17:57:49.214Z,28.00
2018-05-11T18:00:18.977Z,28.00
2018-05-11T18:02:49.496Z,28.00
2018-05-11T18:05:20.021Z,28.00
2018-05-11T18:07:50.537Z,28.10
2018-05-11T18:10:20.289Z,28.10
2018-05-11T18:12:50.120Z,28.10
2018-05-11T18:15:20.712Z,28.00
2018-05-11T18:17:51.225Z,28.00
2018-05-11T18:20:21.004Z,28.00
2018-05-11T18:22:50.764Z,28.00
2018-05-11T18:25:21.268Z,28.00
2018-05-11T18:27:51.008Z,28.00
2018-05-11T18:30:21.542Z,28.00
2018-05-11T18:32:51.286Z,28.00
2018-05-11T18:35:21.068Z,28.00
2018-05-11T18:37:51.622Z,27.90
2018-05-11T18:40:21.375Z,27.90
2018-05-11T18:42:51.926Z,27.80
2018-05-11T18:45:22.527Z,27.80
2018-05-11T18:47:52.266Z,27.80
2018-05-11T18:50:22.776Z,27.90
2018-05-11T18:52:52.613Z,27.90
2018-05-11T18:55:22.423Z,27.90
2018-05-11T18:57:52.920Z,27.70
2018-05-11T19:00:22.732Z,27.70
2018-05-11T19:02:52.432Z,27.70
2018-05-11T19:05:22.160Z,27.70
2018-05-11T19:07:51.895Z,27.70
2018-05-11T19:10:21.664Z,27.70
2018-05-11T19:12:51.463Z,27.70
2018-05-11T19:15:21.222Z,27.70
2018-05-11T19:17:51.748Z,27.60
2018-05-11T19:20:22.281Z,27.60
2018-05-11T19:22:52.818Z,27.70
2018-05-11T19:25:22.578Z,27.70
2018-05-11T19:27:52.348Z,27.70
2018-05-11T19:30:22.119Z,27.80
2018-05-11T19:32:51.888Z,27.80
2018-05-11T19:35:21.865Z,27.80
2018-05-11T19:37:52.379Z,27.80
2018-05-11T19:40:22.149Z,27.80
2018-05-11T19:42:51.903Z,27.90
2018-05-11T19:45:21.658Z,27.80
2018-05-11T19:47:51.392Z,27.80
2018-05-11T19:50:21.126Z,27.80
2018-05-11T19:52:50.886Z,27.80
2018-05-11T19:55:20.632Z,27.80
2018-05-11T19:57:50.381Z,27.70
2018-05-11T20:00:21.078Z,27.70
2018-05-11T20:02:50.824Z,27.60
2018-05-11T20:05:21.363Z,27.70
2018-05-11T20:07:51.145Z,27.60
2018-05-11T20:10:20.882Z,27.60
2018-05-11T20:12:51.371Z,27.60
2018-05-11T20:15:21.131Z,27.60
2018-05-11T20:17:50.856Z,27.60
2018-05-11T20:20:20.592Z,27.50
2018-05-11T20:22:50.366Z,27.50
2018-05-11T20:25:20.084Z,27.50
2018-05-11T20:27:49.809Z,27.60
2018-05-11T20:30:19.549Z,27.60
2018-05-11T20:32:49.564Z,27.60
2018-05-11T20:35:19.331Z,27.50
2018-05-11T20:37:49.112Z,27.50
2018-05-11T20:40:19.621Z,27.50
2018-05-11T20:42:49.364Z,27.50
2018-05-11T20:45:19.886Z,27.60
2018-05-11T20:47:50.437Z,27.60
2018-05-11T20:50:20.380Z,27.60
2018-05-11T20:52:50.101Z,27.60
2018-05-11T20:55:19.841Z,27.60
2018-05-11T20:57:50.437Z,27.60
2018-05-11T21:00:20.357Z,27.50
2018-05-11T21:02:50.102Z,27.60
2018-05-11T21:05:20.636Z,27.60
2018-05-11T21:07:51.163Z,27.60
2018-05-11T21:10:21.663Z,27.50
2018-05-11T21:12:51.427Z,27.50
2018-05-11T21:15:21.163Z,27.40
2018-05-11T21:17:50.904Z,27.40
2018-05-11T21:20:20.655Z,27.40
2018-05-11T21:22:50.425Z,27.40
2018-05-11T21:25:20.260Z,27.40
2018-05-11T21:27:50.812Z,27.40
2018-05-11T21:30:20.570Z,27.40
2018-05-11T21:32:50.320Z,27.40
2018-05-11T21:35:20.870Z,27.40
2018-05-11T21:37:50.603Z,27.30
2018-05-11T21:40:20.335Z,27.30
2018-05-11T21:42:50.060Z,27.30
2018-05-11T21:45:21.550Z,27.30
2018-05-11T21:47:51.348Z,27.30
2018-05-11T21:50:21.091Z,27.30
2018-05-11T21:52:50.833Z,27.30
2018-05-11T21:55:20.702Z,27.30
2018-05-11T21:57:50.417Z,27.40
2018-05-11T22:00:20.186Z,27.30
2018-05-11T22:02:50.742Z,27.30
2018-05-11T22:05:20.507Z,27.30
2018-05-11T22:07:50.270Z,27.30
2018-05-11T22:10:20.008Z,27.30
2018-05-11T22:12:49.729Z,27.30
2018-05-11T22:15:19.642Z,27.30
2018-05-11T22:17:49.387Z,27.30
2018-05-11T22:20:19.915Z,27.20
2018-05-11T22:22:50.454Z,27.30
2018-05-11T22:25:20.232Z,27.20
2018-05-11T22:27:50.068Z,27.20
2018-05-11T22:30:20.616Z,27.30
2018-05-11T22:32:50.412Z,27.30
2018-05-11T22:35:20.148Z,27.30
2018-05-11T22:37:49.931Z,27.40
2018-05-11T22:40:19.763Z,27.40
2018-05-11T22:42:49.487Z,27.40
2018-05-11T22:45:19.240Z,27.30
2018-05-11T22:47:48.982Z,27.20
2018-05-11T22:50:18.770Z,27.10
2018-05-11T22:52:49.495Z,27.10
2018-05-11T22:55:19.246Z,27.10
2018-05-11T22:57:49.986Z,27.10
2018-05-11T23:00:36.480Z,27.10
2018-05-11T23:03:06.213Z,27.00
2018-05-11T23:05:35.982Z,27.00
2018-05-11T23:08:06.478Z,27.00
2018-05-11T23:10:36.226Z,27.00
2018-05-11T23:13:06.745Z,27.00
2018-05-11T23:15:37.238Z,27.00
2018-05-11T23:18:07.015Z,27.00
2018-05-11T23:20:36.752Z,27.00
2018-05-11T23:23:06.510Z,27.00
2018-05-11T23:25:37.016Z,27.10
2018-05-11T23:28:06.765Z,27.10
2018-05-11T23:30:36.542Z,27.10
2018-05-11T23:33:06.276Z,27.10
2018-05-11T23:35:36.772Z,27.20
2018-05-11T23:38:06.509Z,27.20
2018-05-11T23:40:36.989Z,27.30
2018-05-11T23:43:06.753Z,27.30
2018-05-11T23:45:37.275Z,27.30
2018-05-11T23:48:07.787Z,27.40
2018-05-11T23:50:37.539Z,27.40
2018-05-11T23:53:07.312Z,27.50
2018-05-11T23:55:38.174Z,27.80
2018-05-11T23:58:07.939Z,27.80
